createdAt,value
2023-02-18T00:01:40.108Z,1.20
2023-02-18T00:04:08.017Z,0.98
2023-02-18T00:06:36.914Z,0.85
2023-02-18T00:09:06.382Z,1.10
2023-02-18T00:11:37.338Z,0.98
2023-02-18T00:14:11.977Z,1.27
2023-02-18T00:16:42.205Z,0.98
2023-02-18T00:19:18.152Z,1.20
2023-02-18T00:21:46.862Z,1.15
2023-02-18T00:24:16.335Z,1.00
2023-02-18T00:26:44.611Z,0.90
2023-02-18T00:29:12.664Z,0.80
2023-02-18T00:31:41.512Z,1.17
2023-02-18T00:34:12.009Z,0.90
2023-02-18T00:36:40.291Z,0.98
2023-02-18T00:39:10.047Z,1.10
2023-02-18T00:41:38.000Z,1.15
2023-02-18T00:44:07.013Z,1.15
2023-02-18T00:46:35.602Z,1.13
2023-02-18T00:49:05.166Z,1.20
2023-02-18T00:51:33.756Z,1.25
2023-02-18T00:54:01.601Z,1.20
2023-02-18T00:56:29.522Z,1.40
2023-02-18T00:58:57.371Z,1.20
2023-02-18T01:01:26.243Z,1.30
2023-02-18T01:03:54.402Z,1.20
2023-02-18T01:06:22.953Z,1.33
2023-02-18T01:08:50.945Z,1.02
2023-02-18T01:11:19.414Z,1.20
2023-02-18T01:13:47.433Z,1.30
2023-02-18T01:16:15.319Z,1.55
2023-02-18T01:18:43.630Z,1.48
2023-02-18T01:21:12.325Z,1.40
2023-02-18T01:23:42.755Z,1.30
2023-02-18T01:26:11.735Z,1.45
2023-02-18T01:28:41.497Z,1.52
2023-02-18T01:31:12.771Z,1.20
2023-02-18T01:33:40.761Z,1.20
2023-02-18T01:36:11.148Z,1.35
2023-02-18T01:38:39.903Z,1.30
2023-02-18T01:41:07.726Z,1.30
2023-02-18T01:43:36.175Z,1.30
2023-02-18T01:46:20.645Z,1.40
2023-02-18T01:48:56.264Z,1.50
2023-02-18T01:51:41.879Z,1.45
2023-02-18T01:54:16.727Z,1.27
2023-02-18T01:57:02.860Z,1.50
2023-02-18T01:59:48.777Z,1.42
2023-02-18T02:02:21.498Z,1.88
2023-02-18T02:04:49.910Z,1.52
2023-02-18T02:07:20.948Z,1.55
2023-02-18T02:09:51.345Z,1.50
2023-02-18T02:12:56.739Z,1.73
2023-02-18T02:15:49.526Z,1.77
2023-02-18T02:18:38.554Z,1.60
2023-02-18T02:21:39.424Z,1.45
2023-02-18T02:24:31.652Z,1.83
2023-02-18T02:27:23.380Z,1.85
2023-02-18T02:30:51.532Z,1.83
2023-02-18T02:33:43.605Z,1.80
2023-02-18T02:36:24.800Z,2.00
2023-02-18T02:39:17.326Z,1.77
2023-02-18T02:42:19.978Z,1.98
2023-02-18T02:45:04.266Z,1.80
2023-02-18T02:47:57.134Z,1.88
2023-02-18T02:51:00.132Z,2.17
2023-02-18T02:53:33.820Z,2.03
2023-02-18T02:56:25.610Z,2.20
2023-02-18T02:59:04.355Z,2.20
2023-02-18T03:02:18.106Z,2.38
2023-02-18T03:05:12.083Z,2.50
2023-02-18T03:08:00.908Z,2.40
2023-02-18T03:10:34.803Z,2.28
2023-02-18T03:13:26.022Z,2.30
2023-02-18T03:16:00.651Z,2.30
2023-02-18T03:19:07.634Z,2.40
2023-02-18T03:21:44.729Z,2.03
2023-02-18T03:24:25.143Z,2.08
2023-02-18T03:26:59.596Z,2.50
2023-02-18T03:29:28.907Z,2.50
2023-02-18T03:32:02.972Z,2.30
2023-02-18T03:34:38.196Z,2.25
2023-02-18T03:37:08.804Z,2.30
2023-02-18T03:39:39.849Z,2.20
2023-02-18T03:42:07.886Z,2.35
2023-02-18T03:44:35.924Z,2.05
2023-02-18T03:47:04.219Z,2.45
2023-02-18T03:49:32.179Z,2.30
2023-02-18T03:52:01.602Z,2.17
2023-02-18T03:54:29.610Z,2.40
2023-02-18T03:56:57.378Z,2.40
2023-02-18T03:59:25.211Z,2.30
2023-02-18T04:01:53.019Z,2.35
2023-02-18T04:04:20.866Z,2.50
2023-02-18T04:06:48.643Z,2.78
2023-02-18T04:09:16.322Z,2.28
2023-02-18T04:11:44.096Z,2.13
2023-02-18T04:14:14.450Z,2.30
2023-02-18T04:16:42.735Z,2.50
2023-02-18T04:19:10.626Z,2.20
2023-02-18T04:21:38.367Z,2.40
2023-02-18T04:24:06.364Z,2.35
2023-02-18T04:26:34.278Z,2.25
2023-02-18T04:29:02.109Z,2.05
2023-02-18T04:31:30.217Z,2.30
2023-02-18T04:33:58.258Z,2.10
2023-02-18T04:36:25.988Z,2.17
2023-02-18T04:38:53.902Z,2.40
2023-02-18T04:41:21.612Z,2.20
2023-02-18T04:43:49.304Z,2.08
2023-02-18T04:46:17.205Z,2.38
2023-02-18T04:48:45.463Z,1.85
2023-02-18T04:51:13.320Z,2.08
2023-02-18T04:53:41.050Z,2.22
2023-02-18T04:56:09.558Z,2.10
2023-02-18T04:58:37.642Z,2.70
2023-02-18T05:01:05.597Z,2.20
2023-02-18T05:03:33.782Z,2.28
2023-02-18T05:06:01.562Z,2.35
2023-02-18T05:08:29.263Z,2.50
2023-02-18T05:10:57.008Z,2.20
2023-02-18T05:13:24.742Z,2.28
2023-02-18T05:15:52.933Z,2.17
2023-02-18T05:18:20.768Z,2.30
2023-02-18T05:20:48.663Z,2.10
2023-02-18T05:23:16.707Z,2.03
2023-02-18T05:25:44.661Z,2.15
2023-02-18T05:28:12.651Z,1.90
2023-02-18T05:30:40.469Z,2.17
2023-02-18T05:33:08.211Z,2.08
2023-02-18T05:35:36.023Z,2.00
2023-02-18T05:38:03.892Z,1.88
2023-02-18T05:40:31.771Z,1.85
2023-02-18T05:42:59.714Z,2.28
2023-02-18T05:45:27.637Z,1.98
2023-02-18T05:47:55.335Z,1.90
2023-02-18T05:50:23.330Z,2.00
2023-02-18T05:52:51.102Z,1.90
2023-02-18T05:55:19.365Z,2.00
2023-02-18T05:57:47.110Z,2.08
2023-02-18T06:00:15.643Z,1.83
2023-02-18T06:02:43.375Z,1.77
2023-02-18T06:05:11.241Z,1.92
2023-02-18T06:07:38.982Z,2.00
2023-02-18T06:10:07.901Z,2.10
2023-02-18T06:12:35.818Z,1.90
2023-02-18T06:15:04.214Z,1.92
2023-02-18T06:17:32.080Z,2.10
2023-02-18T06:19:59.817Z,2.00
2023-02-18T06:22:27.764Z,1.80
2023-02-18T06:24:55.477Z,2.05
2023-02-18T06:27:23.439Z,1.98
2023-02-18T06:29:51.158Z,1.80
2023-02-18T06:32:18.989Z,1.80
2023-02-18T06:34:47.132Z,2.17
2023-02-18T06:37:14.844Z,1.80
2023-02-18T06:39:42.705Z,2.05
2023-02-18T06:42:10.777Z,2.00
2023-02-18T06:44:38.650Z,2.08
2023-02-18T06:47:07.295Z,1.90
2023-02-18T06:49:36.402Z,1.92
2023-02-18T06:52:05.289Z,1.80
2023-02-18T06:54:34.407Z,1.80
2023-02-18T06:57:02.216Z,1.90
2023-02-18T06:59:29.902Z,1.88
2023-02-18T07:01:57.875Z,1.80
2023-02-18T07:04:25.615Z,1.70
2023-02-18T07:06:53.359Z,1.92
2023-02-18T07:09:21.096Z,1.80
2023-02-18T07:11:49.018Z,1.70
2023-02-18T07:14:16.907Z,1.50
2023-02-18T07:16:44.775Z,1.58
2023-02-18T07:19:14.629Z,1.58
2023-02-18T07:21:43.459Z,1.60
2023-02-18T07:24:11.348Z,2.00
2023-02-18T07:26:39.479Z,1.90
2023-02-18T07:29:07.180Z,1.80
2023-02-18T07:31:35.072Z,1.70
2023-02-18T07:34:02.837Z,1.80
2023-02-18T07:36:30.586Z,1.60
2023-02-18T07:38:58.298Z,2.03
2023-02-18T07:41:26.809Z,1.65
2023-02-18T07:43:54.586Z,1.55
2023-02-18T07:46:22.670Z,1.67
2023-02-18T07:48:50.413Z,1.90
2023-02-18T07:51:18.138Z,1.50
2023-02-18T07:53:46.002Z,1.67
2023-02-18T07:56:13.758Z,2.03
2023-02-18T07:58:41.611Z,1.75
2023-02-18T08:01:13.116Z,1.60
2023-02-18T08:06:19.357Z,1.60
2023-02-18T08:08:47.270Z,2.00
2023-02-18T08:11:19.545Z,1.67
2023-02-18T08:13:49.000Z,1.63
2023-02-18T08:16:19.189Z,1.70
2023-02-18T08:18:48.556Z,1.83
2023-02-18T08:21:18.031Z,2.38
2023-02-18T08:23:45.970Z,2.20
2023-02-18T08:26:14.526Z,1.98
2023-02-18T08:28:47.170Z,1.60
2023-02-18T08:31:25.819Z,1.52
2023-02-18T08:33:56.186Z,1.50
2023-02-18T08:36:24.585Z,1.70
2023-02-18T08:38:52.433Z,1.40
2023-02-18T08:41:20.527Z,1.50
2023-02-18T08:43:48.901Z,1.52
2023-02-18T08:46:24.880Z,1.60
2023-02-18T08:48:55.190Z,1.48
2023-02-18T08:51:23.520Z,1.52
2023-02-18T08:54:11.170Z,1.77
2023-02-18T08:56:39.737Z,1.95
2023-02-18T08:59:27.472Z,2.90
2023-02-18T09:02:15.640Z,2.53
2023-02-18T09:04:43.675Z,2.28
2023-02-18T09:07:11.584Z,1.98
2023-02-18T09:09:39.353Z,1.63
2023-02-18T09:12:07.680Z,1.58
2023-02-18T09:14:35.479Z,2.17
2023-02-18T09:17:03.397Z,1.70
2023-02-18T09:19:31.223Z,1.85
2023-02-18T09:22:00.745Z,2.20
2023-02-18T09:24:28.870Z,1.70
2023-02-18T09:26:56.700Z,1.40
2023-02-18T09:29:24.766Z,1.63
2023-02-18T09:31:52.620Z,1.40
2023-02-18T09:34:20.391Z,1.52
2023-02-18T09:36:48.228Z,1.30
2023-02-18T09:39:18.023Z,1.17
2023-02-18T09:41:54.121Z,1.40
2023-02-18T09:44:40.283Z,1.30
2023-02-18T09:47:20.085Z,1.83
2023-02-18T09:50:05.529Z,1.63
2023-02-18T09:52:38.335Z,1.30
2023-02-18T09:55:23.993Z,1.38
2023-02-18T09:57:56.323Z,1.63
2023-02-18T10:00:52.506Z,1.80
2023-02-18T10:03:25.484Z,1.40
2023-02-18T10:06:01.214Z,1.25
2023-02-18T10:08:40.281Z,1.60
2023-02-18T10:11:42.293Z,1.48
2023-02-18T10:14:13.630Z,1.33
2023-02-18T10:19:34.650Z,1.20
2023-02-18T10:24:44.251Z,1.45
2023-02-18T10:27:25.173Z,1.40
2023-02-18T10:29:54.455Z,1.50
2023-02-18T10:32:34.306Z,1.40
2023-02-18T10:36:25.288Z,1.30
2023-02-18T10:39:32.278Z,1.80
2023-02-18T10:42:29.379Z,1.50
2023-02-18T10:45:28.774Z,1.20
2023-02-18T10:48:28.055Z,1.60
2023-02-18T10:50:58.686Z,1.35
2023-02-18T10:53:38.818Z,1.88
2023-02-18T10:56:08.352Z,1.90
2023-02-18T10:58:46.090Z,1.17
2023-02-18T11:01:17.580Z,1.60
2023-02-18T11:06:41.016Z,2.33
2023-02-18T11:09:33.765Z,1.60
2023-02-18T11:12:14.110Z,1.90
2023-02-18T11:14:49.272Z,2.70
2023-02-18T11:17:28.109Z,1.50
2023-02-18T11:20:02.139Z,1.23
2023-02-18T11:22:41.463Z,1.10
2023-02-18T11:25:28.364Z,1.60
2023-02-18T11:28:00.450Z,1.70
2023-02-18T11:30:34.853Z,1.77
2023-02-18T11:33:09.982Z,1.50
2023-02-18T11:35:38.261Z,1.48
2023-02-18T11:38:36.750Z,1.33
2023-02-18T11:41:10.306Z,1.40
2023-02-18T11:43:45.613Z,1.60
2023-02-18T11:46:27.166Z,1.30
2023-02-18T11:48:56.050Z,1.42
2023-02-18T11:51:33.086Z,1.50
2023-02-18T11:54:05.268Z,1.50
2023-02-18T11:56:36.190Z,1.55
2023-02-18T11:59:04.918Z,1.60
2023-02-18T12:01:47.647Z,1.60
2023-02-18T12:04:42.891Z,1.40
2023-02-18T12:07:31.837Z,1.40
2023-02-18T12:10:11.942Z,1.42
2023-02-18T12:13:04.949Z,1.30
2023-02-18T12:15:52.821Z,1.60
2023-02-18T12:18:57.711Z,2.38
2023-02-18T12:21:55.555Z,1.50
2023-02-18T12:24:33.777Z,1.50
2023-02-18T12:27:22.631Z,1.60
2023-02-18T12:30:33.032Z,1.58
2023-02-18T12:33:37.406Z,1.90
2023-02-18T12:36:33.085Z,1.98
2023-02-18T12:39:41.408Z,1.23
2023-02-18T12:42:33.495Z,1.30
2023-02-18T12:45:18.524Z,1.58
2023-02-18T12:48:23.289Z,1.33
2023-02-18T12:51:14.985Z,1.40
2023-02-18T12:53:50.275Z,1.40
2023-02-18T12:56:42.662Z,1.60
2023-02-18T12:59:51.376Z,1.20
2023-02-18T13:02:46.511Z,1.40
2023-02-18T13:05:29.237Z,1.25
2023-02-18T13:08:30.842Z,1.40
2023-02-18T13:11:10.918Z,1.10
2023-02-18T13:14:11.963Z,1.33
2023-02-18T13:16:44.861Z,1.20
2023-02-18T13:19:44.313Z,1.27
2023-02-18T13:22:16.288Z,1.27
2023-02-18T13:24:48.618Z,1.00
2023-02-18T13:27:48.278Z,1.00
2023-02-18T13:30:36.639Z,1.05
2023-02-18T13:33:36.812Z,0.90
2023-02-18T13:36:23.702Z,1.02
2023-02-18T13:39:03.384Z,1.00
2023-02-18T13:41:40.720Z,0.90
2023-02-18T13:44:28.737Z,0.90
2023-02-18T13:46:59.192Z,0.80
2023-02-18T13:49:34.616Z,0.90
2023-02-18T13:52:04.356Z,0.80
2023-02-18T13:54:45.010Z,0.80
2023-02-18T13:57:27.038Z,0.90
2023-02-18T14:00:02.779Z,1.13
2023-02-18T14:02:36.857Z,1.45
2023-02-18T14:05:08.377Z,1.60
2023-02-18T14:10:32.586Z,1.33
2023-02-18T14:13:00.430Z,1.50
2023-02-18T14:15:28.780Z,2.05
2023-02-18T14:18:14.253Z,1.90
2023-02-18T14:20:46.674Z,1.95
2023-02-18T14:23:20.533Z,2.10
2023-02-18T14:26:14.856Z,1.70
2023-02-18T14:28:54.772Z,2.20
2023-02-18T14:31:48.958Z,2.00
2023-02-18T14:35:11.153Z,2.25
2023-02-18T14:38:04.288Z,2.20
2023-02-18T14:41:32.933Z,2.20
2023-02-18T14:45:04.869Z,2.28
2023-02-18T14:47:59.582Z,2.13
2023-02-18T14:50:35.372Z,1.90
2023-02-18T14:53:18.432Z,1.85
2023-02-18T14:56:09.201Z,1.92
2023-02-18T14:58:48.051Z,2.13
2023-02-18T15:01:33.180Z,2.00
2023-02-18T15:04:02.733Z,1.70
2023-02-18T15:06:37.641Z,1.80
2023-02-18T15:09:22.345Z,1.50
2023-02-18T15:11:55.023Z,1.50
2023-02-18T15:14:39.443Z,1.52
2023-02-18T15:17:23.996Z,1.42
2023-02-18T15:19:58.773Z,1.70
2023-02-18T15:22:31.484Z,1.42
2023-02-18T15:25:00.107Z,1.40
2023-02-18T15:27:35.107Z,1.50
2023-02-18T15:30:21.278Z,1.95
2023-02-18T15:32:59.043Z,2.78
2023-02-18T15:35:31.698Z,2.67
2023-02-18T15:38:01.812Z,2.88
2023-02-18T15:40:37.140Z,3.28
2023-02-18T15:43:07.799Z,2.95
2023-02-18T15:45:41.410Z,2.70
2023-02-18T15:48:33.518Z,2.70
2023-02-18T15:51:16.875Z,2.17
2023-02-18T15:53:50.131Z,1.90
2023-02-18T15:56:35.500Z,2.00
2023-02-18T15:59:36.940Z,1.70
2023-02-18T16:02:08.901Z,1.85
2023-02-18T16:04:45.679Z,1.67
2023-02-18T16:07:49.378Z,1.70
2023-02-18T16:10:36.929Z,1.45
2023-02-18T16:13:06.046Z,1.48
2023-02-18T16:15:40.712Z,1.55
2023-02-18T16:18:41.453Z,1.65
2023-02-18T16:21:18.038Z,1.90
2023-02-18T16:23:57.851Z,1.90
2023-02-18T16:26:28.531Z,1.80
2023-02-18T16:29:34.383Z,1.57
2023-02-18T16:32:02.504Z,1.45
2023-02-18T16:34:30.340Z,1.50
2023-02-18T16:37:16.952Z,1.48
2023-02-18T16:39:44.702Z,1.63
2023-02-18T16:42:13.818Z,1.80
2023-02-18T16:44:41.795Z,1.45
2023-02-18T16:47:16.572Z,1.40
2023-02-18T16:49:51.109Z,1.20
2023-02-18T16:52:19.819Z,1.15
2023-02-18T16:54:53.257Z,1.58
2023-02-18T16:57:21.901Z,1.20
2023-02-18T16:59:50.271Z,1.33
2023-02-18T17:02:22.454Z,1.15
2023-02-18T17:04:54.384Z,1.25
2023-02-18T17:07:23.908Z,1.10
2023-02-18T17:09:51.724Z,1.20
2023-02-18T17:12:19.635Z,1.38
2023-02-18T17:14:47.983Z,1.20
2023-02-18T17:17:17.940Z,1.15
2023-02-18T17:19:45.651Z,1.40
2023-02-18T17:22:14.450Z,1.10
2023-02-18T17:24:42.294Z,1.40
2023-02-18T17:27:14.006Z,1.30
2023-02-18T17:29:41.697Z,1.40
2023-02-18T17:32:09.517Z,1.60
2023-02-18T17:34:40.960Z,1.30
2023-02-18T17:37:13.873Z,1.48
2023-02-18T17:39:41.719Z,1.42
2023-02-18T17:42:12.201Z,1.45
2023-02-18T17:44:40.553Z,1.70
2023-02-18T17:47:08.364Z,1.55
2023-02-18T17:49:36.244Z,1.33
2023-02-18T17:52:04.724Z,1.55
2023-02-18T17:54:32.515Z,1.40
2023-02-18T17:57:00.332Z,1.75
2023-02-18T17:59:29.149Z,1.77
2023-02-18T18:01:57.073Z,1.60
2023-02-18T18:04:25.159Z,1.50
2023-02-18T18:06:52.948Z,1.70
2023-02-18T18:09:20.656Z,1.80
2023-02-18T18:11:48.422Z,1.70
2023-02-18T18:14:16.097Z,1.60
2023-02-18T18:16:43.883Z,1.70
2023-02-18T18:19:11.992Z,1.58
2023-02-18T18:21:40.359Z,1.50
2023-02-18T18:24:12.184Z,1.40
2023-02-18T18:26:41.880Z,1.48
2023-02-18T18:29:10.146Z,1.52
2023-02-18T18:31:39.053Z,1.65
2023-02-18T18:34:06.941Z,1.45
2023-02-18T18:36:34.815Z,1.50
2023-02-18T18:39:02.763Z,1.90
2023-02-18T18:41:30.666Z,1.50
2023-02-18T18:43:58.714Z,1.48
2023-02-18T18:46:26.713Z,1.60
2023-02-18T18:48:54.626Z,1.67
2023-02-18T18:51:29.910Z,1.50
2023-02-18T18:53:57.640Z,1.50
2023-02-18T18:56:25.390Z,1.60
2023-02-18T18:58:53.347Z,1.65
2023-02-18T19:01:27.141Z,1.65
2023-02-18T19:03:55.438Z,1.67
2023-02-18T19:06:24.572Z,1.58
2023-02-18T19:08:52.399Z,1.70
2023-02-18T19:11:20.051Z,1.98
2023-02-18T19:13:47.810Z,1.70
2023-02-18T19:16:21.231Z,1.80
2023-02-18T19:18:51.694Z,1.95
2023-02-18T19:21:19.427Z,1.85
2023-02-18T19:23:47.557Z,2.30
2023-02-18T19:26:16.772Z,1.92
2023-02-18T19:28:46.156Z,1.90
2023-02-18T19:31:14.667Z,1.88
2023-02-18T19:33:45.534Z,2.05
2023-02-18T19:36:14.941Z,2.13
2023-02-18T19:38:42.996Z,2.08
2023-02-18T19:41:16.825Z,2.00
2023-02-18T19:43:46.649Z,2.05
2023-02-18T19:46:19.931Z,2.00
2023-02-18T19:48:50.993Z,2.38
2023-02-18T19:51:21.306Z,2.17
2023-02-18T19:53:49.316Z,2.10
2023-02-18T19:56:17.151Z,2.45
2023-02-18T19:58:45.025Z,2.30
2023-02-18T20:01:18.326Z,2.35
2023-02-18T20:03:47.284Z,2.60
2023-02-18T20:06:22.180Z,2.60
2023-02-18T20:08:49.972Z,2.40
2023-02-18T20:11:18.073Z,2.50
2023-02-18T20:13:48.340Z,2.63
2023-02-18T20:16:16.277Z,2.90
2023-02-18T20:18:44.055Z,2.67
2023-02-18T20:21:12.574Z,2.78
2023-02-18T20:23:40.754Z,2.60
2023-02-18T20:26:10.768Z,2.78
2023-02-18T20:28:38.780Z,2.90
2023-02-18T20:31:11.161Z,2.90
2023-02-18T20:33:42.319Z,2.83
2023-02-18T20:36:12.671Z,2.65
2023-02-18T20:38:40.489Z,2.65
2023-02-18T20:41:12.027Z,2.60
2023-02-18T20:43:40.965Z,2.90
2023-02-18T20:46:13.576Z,2.75
2023-02-18T20:48:41.818Z,2.40
2023-02-18T20:51:16.682Z,3.17
2023-02-18T20:53:46.180Z,2.70
2023-02-18T20:56:14.313Z,2.85
2023-02-18T20:58:42.272Z,2.90
2023-02-18T21:01:14.824Z,2.80
2023-02-18T21:03:45.249Z,2.67
2023-02-18T21:06:17.059Z,2.67
2023-02-18T21:08:47.141Z,2.55
2023-02-18T21:11:23.171Z,2.90
2023-02-18T21:13:54.325Z,2.88
2023-02-18T21:16:23.821Z,2.90
2023-02-18T21:18:51.917Z,2.65
2023-02-18T21:21:20.367Z,2.63
2023-02-18T21:23:48.064Z,2.63
2023-02-18T21:26:23.390Z,2.80
2023-02-18T21:28:58.631Z,2.75
2023-02-18T21:31:49.783Z,2.75
2023-02-18T21:34:17.719Z,2.58
2023-02-18T21:36:45.673Z,2.70
2023-02-18T21:39:13.429Z,2.42
2023-02-18T21:41:41.611Z,2.75
2023-02-18T21:44:10.383Z,2.60
2023-02-18T21:46:39.715Z,2.70
2023-02-18T21:49:09.818Z,2.83
2023-02-18T21:52:11.814Z,2.50
2023-02-18T21:54:44.831Z,2.78
2023-02-18T21:57:18.388Z,2.70
2023-02-18T21:59:46.225Z,2.40
2023-02-18T22:02:34.028Z,2.50
2023-02-18T22:05:08.431Z,2.53
2023-02-18T22:07:36.179Z,2.67
2023-02-18T22:10:04.320Z,2.38
2023-02-18T22:12:33.896Z,2.50
2023-02-18T22:15:01.700Z,2.45
2023-02-18T22:17:31.977Z,2.50
2023-02-18T22:19:59.787Z,2.60
2023-02-18T22:22:27.703Z,2.42
2023-02-18T22:24:55.532Z,2.25
2023-02-18T22:27:24.396Z,2.40
2023-02-18T22:29:52.213Z,2.50
2023-02-18T22:32:20.763Z,2.03
2023-02-18T22:34:48.712Z,2.38
2023-02-18T22:37:16.372Z,2.45
2023-02-18T22:39:44.217Z,2.30
2023-02-18T22:42:11.984Z,2.45
2023-02-18T22:44:39.864Z,2.38
2023-02-18T22:47:07.550Z,2.40
2023-02-18T22:49:35.347Z,2.17
2023-02-18T22:52:03.352Z,2.40
2023-02-18T22:54:31.191Z,2.45
2023-02-18T22:56:59.067Z,2.75
2023-02-18T22:59:26.815Z,2.40
2023-02-18T23:01:54.594Z,2.78
2023-02-18T23:04:22.556Z,2.65
2023-02-18T23:06:51.015Z,2.70
2023-02-18T23:09:24.707Z,2.75
2023-02-18T23:11:56.277Z,2.60
2023-02-18T23:14:28.000Z,2.83
2023-02-18T23:17:15.193Z,2.65
2023-02-18T23:19:43.988Z,2.47
2023-02-18T23:22:15.493Z,2.67
2023-02-18T23:24:45.663Z,2.50
2023-02-18T23:27:15.554Z,2.70
2023-02-18T23:29:43.643Z,2.88
2023-02-18T23:32:11.542Z,2.58
2023-02-18T23:34:39.627Z,2.30
2023-02-18T23:37:07.716Z,2.60
2023-02-18T23:39:35.815Z,2.42
2023-02-18T23:42:03.758Z,2.70
2023-02-18T23:44:31.711Z,2.30
2023-02-18T23:47:00.271Z,2.60
2023-02-18T23:49:28.803Z,2.50
2023-02-18T23:51:57.799Z,2.15
2023-02-18T23:54:25.812Z,2.10
2023-02-18T23:56:53.704Z,2.20
2023-02-18T23:59:21.649Z,2.20
